createdAt,value
2022-09-03T00:02:08.311Z,68.00
2022-09-03T00:04:43.852Z,68.50
2022-09-03T00:07:21.307Z,69.10
2022-09-03T00:09:54.611Z,69.80
2022-09-03T00:12:27.365Z,69.80
2022-09-03T00:15:02.126Z,69.80
2022-09-03T00:17:34.915Z,70.30
2022-09-03T00:20:07.337Z,70.30
2022-09-03T00:22:40.863Z,70.20
2022-09-03T00:25:14.247Z,70.10
2022-09-03T00:27:44.559Z,70.20
2022-09-03T00:30:17.077Z,70.30
2022-09-03T00:32:48.180Z,69.50
2022-09-03T00:35:21.711Z,69.70
2022-09-03T00:37:52.928Z,69.80
2022-09-03T00:40:42.301Z,70.90
2022-09-03T00:43:23.756Z,71.90
2022-09-03T00:45:58.215Z,71.60
2022-09-03T00:48:30.947Z,72.70
2022-09-03T00:51:15.553Z,73.00
2022-09-03T00:53:55.085Z,72.70
2022-09-03T00:56:31.225Z,72.70
2022-09-03T00:59:13.132Z,72.80
2022-09-03T01:01:49.212Z,72.90
2022-09-03T01:04:29.897Z,72.70
2022-09-03T01:07:06.541Z,72.90
2022-09-03T01:09:48.153Z,72.30
2022-09-03T01:12:25.387Z,72.30
2022-09-03T01:15:02.782Z,73.60
2022-09-03T01:17:45.227Z,74.00
2022-09-03T01:20:24.067Z,73.80
2022-09-03T01:23:25.836Z,74.90
2022-09-03T01:26:04.384Z,76.10
2022-09-03T01:28:49.429Z,77.80
2022-09-03T01:31:27.724Z,78.90
2022-09-03T01:34:06.063Z,79.20
2022-09-03T01:36:44.407Z,79.80
2022-09-03T01:39:19.033Z,79.90
2022-09-03T01:45:29.111Z,81.70
2022-09-03T01:48:10.955Z,80.70
2022-09-03T01:50:47.174Z,80.80
2022-09-03T01:53:29.066Z,80.40
2022-09-03T01:56:18.309Z,80.20
2022-09-03T01:58:56.919Z,78.90
2022-09-03T02:01:30.595Z,79.90
2022-09-03T02:04:00.733Z,80.00
2022-09-03T02:06:31.695Z,80.20
2022-09-03T02:08:59.567Z,80.50
2022-09-03T02:11:30.187Z,80.80
2022-09-03T02:13:59.893Z,81.20
2022-09-03T02:16:32.550Z,80.50
2022-09-03T02:19:03.983Z,81.80
2022-09-03T02:21:36.948Z,82.50
2022-09-03T02:24:06.006Z,82.60
2022-09-03T02:26:34.107Z,82.50
2022-09-03T02:29:03.805Z,82.50
2022-09-03T02:31:33.188Z,82.20
2022-09-03T02:34:01.131Z,81.20
2022-09-03T02:36:32.510Z,80.70
2022-09-03T02:39:00.358Z,81.80
2022-09-03T02:41:28.283Z,80.80
2022-09-03T02:44:00.063Z,81.40
2022-09-03T02:46:34.270Z,81.00
2022-09-03T02:49:02.459Z,80.70
2022-09-03T02:51:35.349Z,80.70
2022-09-03T02:54:03.319Z,81.10
2022-09-03T02:56:31.213Z,81.40
2022-09-03T02:59:00.212Z,82.00
2022-09-03T03:01:28.275Z,82.20
2022-09-03T03:03:57.468Z,82.00
2022-09-03T03:06:25.293Z,82.70
2022-09-03T03:08:55.935Z,81.70
2022-09-03T03:11:25.786Z,81.50
2022-09-03T03:13:53.639Z,81.50
2022-09-03T03:16:21.549Z,82.10
2022-09-03T03:18:50.821Z,81.90
2022-09-03T03:21:20.805Z,81.40
2022-09-03T03:23:48.689Z,81.90
2022-09-03T03:26:18.753Z,82.00
2022-09-03T03:28:48.490Z,81.70
2022-09-03T03:31:18.690Z,81.80
2022-09-03T03:33:51.663Z,81.40
2022-09-03T03:36:22.027Z,80.80
2022-09-03T03:38:50.179Z,79.50
2022-09-03T03:41:21.579Z,78.40
2022-09-03T03:43:53.759Z,77.60
2022-09-03T03:46:22.113Z,77.60
2022-09-03T03:48:50.466Z,77.50
2022-09-03T03:51:19.838Z,77.80
2022-09-03T03:53:48.352Z,78.30
2022-09-03T03:56:17.343Z,78.40
2022-09-03T03:58:45.259Z,78.30
2022-09-03T04:01:15.478Z,78.50
2022-09-03T04:03:44.262Z,78.60
2022-09-03T04:06:15.846Z,78.80
2022-09-03T04:08:46.740Z,78.50
2022-09-03T04:11:17.403Z,78.80
2022-09-03T04:13:46.928Z,78.90
2022-09-03T04:16:16.415Z,79.50
2022-09-03T04:18:44.370Z,80.20
2022-09-03T04:21:14.781Z,81.00
2022-09-03T04:23:47.134Z,81.50
2022-09-03T04:26:17.546Z,81.00
2022-09-03T04:28:45.575Z,81.60
2022-09-03T04:31:15.240Z,81.80
2022-09-03T04:33:43.381Z,81.80
2022-09-03T04:36:13.151Z,80.90
2022-09-03T04:38:42.450Z,81.00
2022-09-03T04:41:13.142Z,81.60
2022-09-03T04:43:42.447Z,81.10
2022-09-03T04:46:17.588Z,80.40
2022-09-03T04:48:49.879Z,80.20
2022-09-03T04:51:20.403Z,80.20
2022-09-03T04:53:49.980Z,79.80
2022-09-03T04:56:22.037Z,80.30
2022-09-03T04:58:51.235Z,81.60
2022-09-03T05:01:21.325Z,81.30
2022-09-03T05:03:50.937Z,82.40
2022-09-03T05:06:18.947Z,82.80
2022-09-03T05:08:49.498Z,83.70
2022-09-03T05:11:19.979Z,84.50
2022-09-03T05:13:49.887Z,85.10
2022-09-03T05:16:19.366Z,85.30
2022-09-03T05:18:47.789Z,85.40
2022-09-03T05:21:17.242Z,86.00
2022-09-03T05:23:46.940Z,85.10
2022-09-03T05:26:17.523Z,86.10
2022-09-03T05:28:47.729Z,84.20
2022-09-03T05:31:17.617Z,82.80
2022-09-03T05:33:47.080Z,80.00
2022-09-03T05:36:18.023Z,77.60
2022-09-03T05:38:47.475Z,74.80
2022-09-03T05:41:17.027Z,72.80
2022-09-03T05:43:51.858Z,71.70
2022-09-03T05:46:20.038Z,70.70
2022-09-03T05:48:47.884Z,70.20
2022-09-03T05:51:18.088Z,69.60
2022-09-03T05:53:47.149Z,69.10
2022-09-03T05:56:17.989Z,68.60
2022-09-03T05:58:48.975Z,68.60
2022-09-03T06:01:18.786Z,68.50
2022-09-03T06:03:48.429Z,68.40
2022-09-03T06:06:16.621Z,68.20
2022-09-03T06:08:44.999Z,68.50
2022-09-03T06:11:13.049Z,68.30
2022-09-03T06:13:40.865Z,68.50
2022-09-03T06:16:10.255Z,67.70
2022-09-03T06:18:38.147Z,68.10
2022-09-03T06:21:08.635Z,68.60
2022-09-03T06:23:37.169Z,70.00
2022-09-03T06:26:09.039Z,69.70
2022-09-03T06:28:40.478Z,70.20
2022-09-03T06:31:11.586Z,70.20
2022-09-03T06:33:40.437Z,70.40
2022-09-03T06:36:10.506Z,69.70
2022-09-03T06:38:39.430Z,70.50
2022-09-03T06:41:09.306Z,70.30
2022-09-03T06:43:39.080Z,70.60
2022-09-03T06:46:11.145Z,70.20
2022-09-03T06:48:40.740Z,69.80
2022-09-03T06:51:10.682Z,70.20
2022-09-03T06:53:40.542Z,70.00
2022-09-03T06:56:10.534Z,70.20
2022-09-03T06:58:40.546Z,69.60
2022-09-03T07:01:12.838Z,69.40
2022-09-03T07:03:42.188Z,69.60
2022-09-03T07:06:11.293Z,69.70
2022-09-03T07:08:39.444Z,69.70
2022-09-03T07:11:10.275Z,69.40
2022-09-03T07:13:40.073Z,68.80
2022-09-03T07:16:11.275Z,69.00
2022-09-03T07:18:39.432Z,68.40
2022-09-03T07:21:09.199Z,67.30
2022-09-03T07:23:39.154Z,66.90
2022-09-03T07:26:10.569Z,66.70
2022-09-03T07:28:40.060Z,66.10
2022-09-03T07:31:12.685Z,66.20
2022-09-03T07:33:40.859Z,65.90
2022-09-03T07:36:10.262Z,65.90
2022-09-03T07:38:38.792Z,65.80
2022-09-03T07:41:08.660Z,65.40
2022-09-03T07:43:40.033Z,65.50
2022-09-03T07:46:08.532Z,65.00
2022-09-03T07:48:37.775Z,65.50
2022-09-03T07:51:05.725Z,65.00
2022-09-03T07:53:34.238Z,64.50
2022-09-03T07:56:06.898Z,64.30
2022-09-03T07:58:35.675Z,63.80
2022-09-03T08:01:08.853Z,63.90
2022-09-03T08:03:44.228Z,64.30
2022-09-03T08:06:13.491Z,64.10
2022-09-03T08:08:41.547Z,63.30
2022-09-03T08:11:11.287Z,62.30
2022-09-03T08:13:40.834Z,60.70
2022-09-03T08:16:09.500Z,58.10
2022-09-03T08:18:39.192Z,58.00
2022-09-03T08:21:10.014Z,58.40
2022-09-03T08:23:41.985Z,58.10
2022-09-03T08:26:10.655Z,57.20
2022-09-03T08:28:39.299Z,55.60
2022-09-03T08:31:10.097Z,56.00
2022-09-03T08:33:38.460Z,56.80
2022-09-03T08:36:09.667Z,56.20
2022-09-03T08:38:38.206Z,57.40
2022-09-03T08:41:08.535Z,57.00
2022-09-03T08:43:52.202Z,56.10
2022-09-03T08:46:21.450Z,55.50
2022-09-03T08:48:49.835Z,54.60
2022-09-03T08:51:23.834Z,51.90
2022-09-03T08:53:57.424Z,52.90
2022-09-03T08:56:29.070Z,53.10
2022-09-03T08:58:57.258Z,52.20
2022-09-03T09:01:38.666Z,53.20
2022-09-03T09:04:19.675Z,53.00
2022-09-03T09:06:54.164Z,54.90
2022-09-03T09:09:31.964Z,55.60
2022-09-03T09:12:08.654Z,54.50
2022-09-03T09:14:40.943Z,53.70
2022-09-03T09:17:27.975Z,53.90
2022-09-03T09:20:07.676Z,53.90
2022-09-03T09:22:40.327Z,53.50
2022-09-03T09:25:14.316Z,54.30
2022-09-03T09:27:51.994Z,55.30
2022-09-03T09:30:20.724Z,54.90
2022-09-03T09:32:48.682Z,56.60
2022-09-03T09:35:19.234Z,57.20
2022-09-03T09:37:54.448Z,57.90
2022-09-03T09:40:27.504Z,57.10
2022-09-03T09:43:06.297Z,57.40
2022-09-03T09:45:35.211Z,57.90
2022-09-03T09:48:08.147Z,57.00
2022-09-03T09:50:36.030Z,56.50
2022-09-03T09:53:14.575Z,54.70
2022-09-03T09:55:53.490Z,53.40
2022-09-03T09:58:26.237Z,53.20
2022-09-03T10:01:04.070Z,54.30
2022-09-03T10:03:36.071Z,53.40
2022-09-03T10:06:21.378Z,54.10
2022-09-03T10:08:50.835Z,52.90
2022-09-03T10:11:22.090Z,52.80
2022-09-03T10:13:50.911Z,52.60
2022-09-03T10:16:26.678Z,53.80
2022-09-03T10:19:01.629Z,54.20
2022-09-03T10:21:42.670Z,54.40
2022-09-03T10:24:41.494Z,54.60
2022-09-03T10:27:12.661Z,55.50
2022-09-03T10:29:42.171Z,57.00
2022-09-03T10:32:37.811Z,57.00
2022-09-03T10:35:15.746Z,56.60
2022-09-03T10:37:55.009Z,58.20
2022-09-03T10:40:32.067Z,57.10
2022-09-03T10:43:17.350Z,58.10
2022-09-03T10:45:58.013Z,57.70
2022-09-03T10:48:52.587Z,57.80
2022-09-03T10:51:24.970Z,58.70
2022-09-03T10:54:18.727Z,59.70
2022-09-03T10:56:55.773Z,63.80
2022-09-03T10:59:34.615Z,77.10
2022-09-03T11:02:18.825Z,88.70
2022-09-03T11:04:55.437Z,96.70
2022-09-03T11:07:28.749Z,99.90
2022-09-03T11:10:03.983Z,99.90
2022-09-03T11:12:38.028Z,99.90
2022-09-03T11:15:10.662Z,99.90
2022-09-03T11:17:41.805Z,99.90
2022-09-03T11:20:20.486Z,99.90
2022-09-03T11:22:51.609Z,99.90
2022-09-03T11:25:25.886Z,99.90
2022-09-03T11:28:03.966Z,99.90
2022-09-03T11:30:39.668Z,99.90
2022-09-03T11:33:10.740Z,99.90
2022-09-03T11:35:43.177Z,99.90
2022-09-03T11:38:24.621Z,99.90
2022-09-03T11:41:05.077Z,99.90
2022-09-03T11:43:35.505Z,99.90
2022-09-03T11:46:06.553Z,99.90
2022-09-03T11:48:39.593Z,99.90
2022-09-03T11:51:20.969Z,99.90
2022-09-03T11:53:56.888Z,99.90
2022-09-03T11:56:25.511Z,99.90
2022-09-03T11:59:16.011Z,99.90
2022-09-03T12:01:48.466Z,99.90
2022-09-03T12:04:18.185Z,99.90
2022-09-03T12:07:25.774Z,99.90
2022-09-03T12:10:24.724Z,99.90
2022-09-03T12:13:13.420Z,99.90
2022-09-03T12:16:10.170Z,99.90
2022-09-03T12:18:38.843Z,99.90
2022-09-03T12:21:08.992Z,99.90
2022-09-03T12:23:42.551Z,93.90
2022-09-03T12:26:14.836Z,89.60
2022-09-03T12:28:44.471Z,93.40
2022-09-03T12:31:24.807Z,96.70
2022-09-03T12:33:54.558Z,93.80
2022-09-03T12:36:23.884Z,92.50
2022-09-03T12:39:11.894Z,81.90
2022-09-03T12:41:48.023Z,80.30
2022-09-03T12:44:16.363Z,77.80
2022-09-03T12:46:46.667Z,78.00
2022-09-03T12:49:31.739Z,77.90
2022-09-03T12:52:05.917Z,79.40
2022-09-03T12:54:35.777Z,72.70
2022-09-03T12:57:04.446Z,72.70
2022-09-03T12:59:36.676Z,72.60
2022-09-03T13:02:13.463Z,72.40
2022-09-03T13:04:42.263Z,73.00
2022-09-03T13:07:15.139Z,73.00
2022-09-03T13:09:43.739Z,72.10
2022-09-03T13:12:23.153Z,70.50
2022-09-03T13:14:52.522Z,72.70
2022-09-03T13:17:40.844Z,66.60
2022-09-03T13:20:33.962Z,67.20
2022-09-03T13:23:11.891Z,67.50
2022-09-03T13:25:52.634Z,66.20
2022-09-03T13:28:40.049Z,68.10
2022-09-03T13:31:26.916Z,67.10
2022-09-03T13:34:01.045Z,67.30
2022-09-03T13:36:35.278Z,68.70
2022-09-03T13:39:06.909Z,65.70
2022-09-03T13:41:41.205Z,67.10
2022-09-03T13:44:14.257Z,65.40
2022-09-03T13:46:46.561Z,68.10
2022-09-03T13:49:48.879Z,66.60
2022-09-03T13:52:26.297Z,66.20
2022-09-03T13:54:58.238Z,66.00
2022-09-03T13:57:36.448Z,66.80
2022-09-03T14:00:07.894Z,64.10
2022-09-03T14:02:51.181Z,63.50
2022-09-03T14:05:33.641Z,62.70
2022-09-03T14:08:10.499Z,63.30
2022-09-03T14:11:00.727Z,63.00
2022-09-03T14:13:47.614Z,63.30
2022-09-03T14:16:30.706Z,63.60
2022-09-03T14:19:02.804Z,64.30
2022-09-03T14:21:35.874Z,64.60
2022-09-03T14:24:11.114Z,64.30
2022-09-03T14:26:49.614Z,63.10
2022-09-03T14:29:18.537Z,65.10
2022-09-03T14:32:11.897Z,66.20
2022-09-03T14:34:53.235Z,66.40
2022-09-03T14:37:45.936Z,66.50
2022-09-03T14:40:18.002Z,64.50
2022-09-03T14:43:06.439Z,64.70
2022-09-03T14:46:05.696Z,63.90
2022-09-03T14:48:49.004Z,62.90
2022-09-03T14:51:28.181Z,63.00
2022-09-03T14:54:34.930Z,62.80
2022-09-03T14:57:18.703Z,62.70
2022-09-03T15:00:06.710Z,64.40
2022-09-03T15:03:06.261Z,65.00
2022-09-03T15:05:47.031Z,65.90
2022-09-03T15:08:28.545Z,65.10
2022-09-03T15:11:01.111Z,64.70
2022-09-03T15:13:32.467Z,64.90
2022-09-03T15:16:14.549Z,64.00
2022-09-03T15:18:58.609Z,61.90
2022-09-03T15:21:35.313Z,59.20
2022-09-03T15:24:09.601Z,60.50
2022-09-03T15:27:10.152Z,60.70
2022-09-03T15:29:49.980Z,60.50
2022-09-03T15:32:33.255Z,59.40
2022-09-03T15:35:06.943Z,59.50
2022-09-03T15:37:43.438Z,59.90
2022-09-03T15:40:24.649Z,60.60
2022-09-03T15:43:01.525Z,61.80
2022-09-03T15:45:38.941Z,61.90
2022-09-03T15:48:20.898Z,61.50
2022-09-03T15:50:56.140Z,60.80
2022-09-03T15:53:35.038Z,60.70
2022-09-03T15:56:15.882Z,60.40
2022-09-03T15:58:52.635Z,59.30
2022-09-03T16:01:30.085Z,59.70
2022-09-03T16:04:09.719Z,59.30
2022-09-03T16:06:48.714Z,61.10
2022-09-03T16:09:27.602Z,59.90
2022-09-03T16:12:02.734Z,61.10
2022-09-03T16:14:39.270Z,61.30
2022-09-03T16:17:19.519Z,61.20
2022-09-03T16:19:53.832Z,61.70
2022-09-03T16:22:28.073Z,61.30
2022-09-03T16:25:02.160Z,61.80
2022-09-03T16:27:36.211Z,62.20
2022-09-03T16:30:10.997Z,63.20
2022-09-03T16:32:59.074Z,63.90
2022-09-03T16:35:36.633Z,65.10
2022-09-03T16:38:19.173Z,66.30
2022-09-03T16:40:52.859Z,66.10
2022-09-03T16:43:40.059Z,66.30
2022-09-03T16:46:24.051Z,66.20
2022-09-03T16:49:08.668Z,66.40
2022-09-03T16:51:44.686Z,67.20
2022-09-03T16:54:27.041Z,67.30
2022-09-03T16:57:08.284Z,66.90
2022-09-03T17:00:03.837Z,67.40
2022-09-03T17:03:26.173Z,67.40
2022-09-03T17:06:26.249Z,67.60
2022-09-03T17:09:03.707Z,69.00
2022-09-03T17:12:00.295Z,69.50
2022-09-03T17:15:13.912Z,70.80
2022-09-03T17:17:59.129Z,71.70
2022-09-03T17:20:48.572Z,72.00
2022-09-03T17:23:40.897Z,72.00
2022-09-03T17:26:13.816Z,72.00
2022-09-03T17:28:58.800Z,72.00
2022-09-03T17:31:39.361Z,72.60
2022-09-03T17:34:16.285Z,71.90
2022-09-03T17:36:58.608Z,72.70
2022-09-03T17:39:52.330Z,74.70
2022-09-03T17:42:32.017Z,77.20
2022-09-03T17:45:12.189Z,78.60
2022-09-03T17:48:05.436Z,79.80
2022-09-03T17:50:45.884Z,81.10
2022-09-03T17:53:21.950Z,81.00
2022-09-03T17:55:56.532Z,81.70
2022-09-03T17:58:31.262Z,82.90
2022-09-03T18:01:07.715Z,83.80
2022-09-03T18:03:45.058Z,84.40
2022-09-03T18:06:26.067Z,85.40
2022-09-03T18:08:58.657Z,85.40
2022-09-03T18:11:36.676Z,85.40
2022-09-03T18:14:16.152Z,85.60
2022-09-03T18:16:50.359Z,86.10
2022-09-03T18:19:31.304Z,86.90
2022-09-03T18:22:22.339Z,87.10
2022-09-03T18:25:13.582Z,87.50
2022-09-03T18:28:02.855Z,87.80
2022-09-03T18:30:48.341Z,87.70
2022-09-03T18:33:39.282Z,87.70
2022-09-03T18:36:25.411Z,87.90
2022-09-03T18:39:26.431Z,88.50
2022-09-03T18:42:20.820Z,89.40
2022-09-03T18:45:22.035Z,90.80
2022-09-03T18:48:20.903Z,91.70
2022-09-03T18:51:14.829Z,91.90
2022-09-03T18:54:09.780Z,92.20
2022-09-03T18:57:04.863Z,93.40
2022-09-03T19:00:07.888Z,93.80
2022-09-03T19:03:04.585Z,94.40
2022-09-03T19:05:57.431Z,94.60
2022-09-03T19:08:47.463Z,94.80
2022-09-03T19:11:46.485Z,95.50
2022-09-03T19:14:48.288Z,96.50
2022-09-03T19:17:43.410Z,97.20
2022-09-03T19:20:36.046Z,97.50
2022-09-03T19:23:21.943Z,98.00
2022-09-03T19:26:08.881Z,98.30
2022-09-03T19:29:00.074Z,97.90
2022-09-03T19:32:00.985Z,97.90
2022-09-03T19:35:09.180Z,96.20
2022-09-03T19:38:00.926Z,95.90
2022-09-03T19:41:09.165Z,98.10
2022-09-03T19:44:03.095Z,98.80
2022-09-03T19:46:58.467Z,98.30
2022-09-03T19:49:54.478Z,98.80
2022-09-03T19:52:48.591Z,99.10
2022-09-03T19:55:40.515Z,99.20
2022-09-03T19:58:42.589Z,99.10
2022-09-03T20:01:29.211Z,99.30
2022-09-03T20:04:22.741Z,99.50
2022-09-03T20:07:08.261Z,99.40
2022-09-03T20:09:58.671Z,99.90
2022-09-03T20:12:32.119Z,99.90
2022-09-03T20:14:59.943Z,99.90
2022-09-03T20:17:37.422Z,99.90
2022-09-03T20:20:17.300Z,99.90
2022-09-03T20:22:52.487Z,99.90
2022-09-03T20:25:40.958Z,99.90
2022-09-03T20:28:18.621Z,99.90
2022-09-03T20:30:51.723Z,99.90
2022-09-03T20:33:31.333Z,99.90
2022-09-03T20:36:13.269Z,99.90
2022-09-03T20:39:20.399Z,99.90
2022-09-03T20:41:57.232Z,99.90
2022-09-03T20:44:48.885Z,99.90
2022-09-03T20:47:31.842Z,99.90
2022-09-03T20:50:10.485Z,99.90
2022-09-03T20:52:50.498Z,99.90
2022-09-03T20:55:22.377Z,99.90
2022-09-03T20:57:56.828Z,99.90
2022-09-03T21:00:25.259Z,99.90
2022-09-03T21:03:15.880Z,99.90
2022-09-03T21:05:55.987Z,99.90
2022-09-03T21:08:44.345Z,99.90
2022-09-03T21:11:16.617Z,99.90
2022-09-03T21:13:52.206Z,99.90
2022-09-03T21:16:30.432Z,99.90
2022-09-03T21:19:04.574Z,99.90
2022-09-03T21:21:44.945Z,99.90
2022-09-03T21:24:20.301Z,99.90
2022-09-03T21:26:52.842Z,99.90
2022-09-03T21:29:25.807Z,99.90
2022-09-03T21:31:59.411Z,99.90
2022-09-03T21:34:31.797Z,99.90
2022-09-03T21:37:04.123Z,99.90
2022-09-03T21:39:35.928Z,99.90
2022-09-03T21:42:10.612Z,99.90
2022-09-03T21:44:52.527Z,99.90
2022-09-03T21:47:22.297Z,99.90
2022-09-03T21:50:16.453Z,99.90
2022-09-03T21:52:49.999Z,99.90
2022-09-03T21:55:33.241Z,99.90
2022-09-03T21:58:13.609Z,99.90
2022-09-03T22:00:41.466Z,99.90
2022-09-03T22:03:10.364Z,99.90
2022-09-03T22:05:49.528Z,99.90
2022-09-03T22:08:24.371Z,99.90
2022-09-03T22:11:03.842Z,99.90
2022-09-03T22:13:33.033Z,99.90
2022-09-03T22:16:13.261Z,99.90
2022-09-03T22:18:41.601Z,99.90
2022-09-03T22:21:18.287Z,99.90
2022-09-03T22:24:04.078Z,99.90
2022-09-03T22:26:45.709Z,99.90
2022-09-03T22:29:22.232Z,99.90
2022-09-03T22:31:59.279Z,99.90
2022-09-03T22:34:39.859Z,99.90
2022-09-03T22:37:16.799Z,99.90
2022-09-03T22:39:48.073Z,99.90
2022-09-03T22:42:32.350Z,99.90
2022-09-03T22:45:18.176Z,99.90
2022-09-03T22:47:54.978Z,99.90
2022-09-03T22:50:29.125Z,99.90
2022-09-03T22:53:09.561Z,99.90
2022-09-03T22:55:42.187Z,99.90
2022-09-03T22:58:16.966Z,99.90
2022-09-03T23:00:52.702Z,99.90
2022-09-03T23:03:26.356Z,99.90
2022-09-03T23:06:02.741Z,99.90
2022-09-03T23:08:35.677Z,99.90
2022-09-03T23:11:08.430Z,99.90
2022-09-03T23:13:42.406Z,99.90
2022-09-03T23:16:18.687Z,99.90
2022-09-03T23:18:49.195Z,99.90
2022-09-03T23:21:24.539Z,99.90
2022-09-03T23:23:58.080Z,99.90
2022-09-03T23:26:33.308Z,99.90
2022-09-03T23:29:10.344Z,99.90
2022-09-03T23:31:38.632Z,99.90
2022-09-03T23:34:08.423Z,99.90
2022-09-03T23:40:02.183Z,99.90
2022-09-03T23:42:45.526Z,99.90
2022-09-03T23:45:24.500Z,99.90
2022-09-03T23:47:57.839Z,99.90
2022-09-03T23:50:33.110Z,99.90
2022-09-03T23:53:24.037Z,99.90
2022-09-03T23:56:02.597Z,99.90
2022-09-03T23:58:41.300Z,99.90
